sensor_id;sensor_type;location;lat;lon;timestamp;pressure;altitude;pressure_sealevel;temperature;humidity
30614;BME280;17381;51.690;5.270;2023-02-13T00:41:59;103669.72;;;7.55;76.49
30614;BME280;17381;51.690;5.270;2023-02-13T00:47:55;103698.00;;;7.67;76.63
30614;BME280;17381;51.690;5.270;2023-02-13T00:51:21;103697.19;;;7.68;76.26
30614;BME280;17381;51.690;5.270;2023-02-13T00:54:43;103695.47;;;7.68;75.75
30614;BME280;17381;51.690;5.270;2023-02-13T01:02:10;103697.09;;;7.64;76.36
30614;BME280;17381;51.690;5.270;2023-02-13T01:19:31;103692.69;;;7.63;76.90
30614;BME280;17381;51.690;5.270;2023-02-13T01:25:54;103687.44;;;7.62;76.48
30614;BME280;17381;51.690;5.270;2023-02-13T01:41:25;103676.63;;;7.53;77.06
30614;BME280;17381;51.690;5.270;2023-02-13T02:02:57;103681.06;;;7.54;77.30
30614;BME280;17381;51.690;5.270;2023-02-13T02:06:47;103678.44;;;7.54;77.49
30614;BME280;17381;51.690;5.270;2023-02-13T02:49:01;103654.81;;;7.52;77.92
30614;BME280;17381;51.690;5.270;2023-02-13T02:58:46;103668.78;;;7.53;78.19
30614;BME280;17381;51.690;5.270;2023-02-13T03:53:24;103661.56;;;7.18;78.06
30614;BME280;17381;51.690;5.270;2023-02-13T04:00:38;103661.34;;;6.87;78.40
30614;BME280;17381;51.690;5.270;2023-02-13T04:04:00;103663.53;;;6.76;78.84
30614;BME280;17381;51.690;5.270;2023-02-13T04:07:22;103656.16;;;6.64;78.68
30614;BME280;17381;51.690;5.270;2023-02-13T04:10:53;103653.19;;;6.55;78.70
30614;BME280;17381;51.690;5.270;2023-02-13T04:38:33;103649.34;;;5.99;81.18
30614;BME280;17381;51.690;5.270;2023-02-13T05:00:26;103639.19;;;5.84;82.47
30614;BME280;17381;51.690;5.270;2023-02-13T05:07:10;103633.78;;;5.79;83.01
30614;BME280;17381;51.690;5.270;2023-02-13T05:21:25;103632.31;;;5.65;83.45
30614;BME280;17381;51.690;5.270;2023-02-13T05:39:01;103631.59;;;5.46;84.30
30614;BME280;17381;51.690;5.270;2023-02-13T06:01:05;103636.38;;;5.36;84.28
30614;BME280;17381;51.690;5.270;2023-02-13T06:11:59;103645.47;;;5.24;84.46
30614;BME280;17381;51.690;5.270;2023-02-13T06:29:26;103639.50;;;5.06;84.39
30614;BME280;17381;51.690;5.270;2023-02-13T06:34:56;103595.06;;;4.63;84.85
30614;BME280;17381;51.690;5.270;2023-02-13T06:58:00;103658.00;;;4.93;85.09
30614;BME280;17381;51.690;5.270;2023-02-13T07:08:30;103631.28;;;4.77;85.29
30614;BME280;17381;51.690;5.270;2023-02-13T07:12:25;103649.88;;;4.85;85.60
30614;BME280;17381;51.690;5.270;2023-02-13T07:23:32;103661.97;;;4.83;85.82
30614;BME280;17381;51.690;5.270;2023-02-13T07:26:50;103648.59;;;4.75;86.29
30614;BME280;17381;51.690;5.270;2023-02-13T07:30:10;103654.16;;;4.83;86.08
30614;BME280;17381;51.690;5.270;2023-02-13T07:33:36;103660.28;;;4.85;86.06
30614;BME280;17381;51.690;5.270;2023-02-13T07:40:40;103671.63;;;4.86;86.67
30614;BME280;17381;51.690;5.270;2023-02-13T07:44:10;103665.66;;;4.88;86.70
30614;BME280;17381;51.690;5.270;2023-02-13T08:32:09;103686.03;;;5.18;87.55
30614;BME280;17381;51.690;5.270;2023-02-13T08:46:22;103708.13;;;5.47;88.15
30614;BME280;17381;51.690;5.270;2023-02-13T08:49:46;103676.38;;;5.36;88.09
30614;BME280;17381;51.690;5.270;2023-02-13T08:53:10;103704.38;;;5.61;88.40
30614;BME280;17381;51.690;5.270;2023-02-13T09:11:51;103702.47;;;5.99;88.79
30614;BME280;17381;51.690;5.270;2023-02-13T09:15:40;103711.69;;;6.12;88.72
30614;BME280;17381;51.690;5.270;2023-02-13T09:22:59;103706.88;;;6.23;88.56
30614;BME280;17381;51.690;5.270;2023-02-13T09:38:02;103708.75;;;6.49;88.38
30614;BME280;17381;51.690;5.270;2023-02-13T09:44:42;103708.34;;;6.63;88.34
30614;BME280;17381;51.690;5.270;2023-02-13T09:48:23;103712.31;;;6.75;88.00
30614;BME280;17381;51.690;5.270;2023-02-13T09:51:46;103720.16;;;6.99;88.51
30614;BME280;17381;51.690;5.270;2023-02-13T10:16:02;103698.19;;;14.04;70.55
30614;BME280;17381;51.690;5.270;2023-02-13T10:18:48;103691.44;;;14.57;68.70
30614;BME280;17381;51.690;5.270;2023-02-13T10:21:26;103626.16;;;14.76;67.36
30614;BME280;17381;51.690;5.270;2023-02-13T10:24:24;103688.94;;;15.60;65.09
30614;BME280;17381;51.690;5.270;2023-02-13T10:26:51;103677.41;;;16.01;62.65
30614;BME280;17381;51.690;5.270;2023-02-13T10:29:47;103682.56;;;16.42;59.81
30614;BME280;17381;51.690;5.270;2023-02-13T10:32:51;103676.28;;;16.58;56.42
30614;BME280;17381;51.690;5.270;2023-02-13T10:38:17;103675.81;;;17.32;57.48
30614;BME280;17381;51.690;5.270;2023-02-13T10:41:03;103679.88;;;17.72;56.21
30614;BME280;17381;51.690;5.270;2023-02-13T10:52:10;103651.06;;;18.80;51.43
30614;BME280;17381;51.690;5.270;2023-02-13T10:55:04;103656.00;;;19.06;49.31
30614;BME280;17381;51.690;5.270;2023-02-13T10:58:18;103659.16;;;19.28;46.20
30614;BME280;17381;51.690;5.270;2023-02-13T11:01:09;103641.09;;;19.46;49.09
30614;BME280;17381;51.690;5.270;2023-02-13T11:03:39;103638.81;;;19.75;49.44
30614;BME280;17381;51.690;5.270;2023-02-13T11:06:16;103602.31;;;19.76;47.82
30614;BME280;17381;51.690;5.270;2023-02-13T11:08:50;103644.88;;;20.25;48.07
30614;BME280;17381;51.690;5.270;2023-02-13T11:11:41;103643.69;;;20.39;44.41
30614;BME280;17381;51.690;5.270;2023-02-13T11:14:59;103645.16;;;20.54;44.53
30614;BME280;17381;51.690;5.270;2023-02-13T11:17:39;103633.19;;;20.72;45.42
30614;BME280;17381;51.690;5.270;2023-02-13T11:20:36;103640.78;;;20.90;43.81
30614;BME280;17381;51.690;5.270;2023-02-13T11:26:01;103622.97;;;21.25;44.79
30614;BME280;17381;51.690;5.270;2023-02-13T11:28:43;103619.00;;;21.41;43.31
30614;BME280;17381;51.690;5.270;2023-02-13T11:33:57;103585.31;;;21.65;43.31
30614;BME280;17381;51.690;5.270;2023-02-13T11:36:40;103604.00;;;21.98;43.64
30614;BME280;17381;51.690;5.270;2023-02-13T11:39:23;103606.81;;;21.62;42.70
30614;BME280;17381;51.690;5.270;2023-02-13T11:41:53;103592.84;;;21.17;42.77
30614;BME280;17381;51.690;5.270;2023-02-13T11:46:59;103596.31;;;20.47;43.60
30614;BME280;17381;51.690;5.270;2023-02-13T11:49:30;103553.53;;;19.68;43.14
30614;BME280;17381;51.690;5.270;2023-02-13T11:52:22;103605.91;;;19.73;43.26
30614;BME280;17381;51.690;5.270;2023-02-13T11:54:58;103519.09;;;19.54;44.79
30614;BME280;17381;51.690;5.270;2023-02-13T11:57:36;103608.75;;;20.09;45.05
30614;BME280;17381;51.690;5.270;2023-02-13T12:00:33;103599.06;;;20.44;44.64
30614;BME280;17381;51.690;5.270;2023-02-13T12:08:46;103541.25;;;21.46;42.64
30614;BME280;17381;51.690;5.270;2023-02-13T12:11:48;103569.41;;;22.20;42.43
30614;BME280;17381;51.690;5.270;2023-02-13T12:14:28;103576.47;;;22.79;42.58
30614;BME280;17381;51.690;5.270;2023-02-13T12:17:05;103573.06;;;23.27;41.70
30614;BME280;17381;51.690;5.270;2023-02-13T12:19:52;103562.81;;;23.62;39.46
30614;BME280;17381;51.690;5.270;2023-02-13T12:22:43;103561.94;;;23.86;38.97
30614;BME280;17381;51.690;5.270;2023-02-13T12:28:14;103556.25;;;24.17;38.39
30614;BME280;17381;51.690;5.270;2023-02-13T12:34:08;103560.28;;;24.51;36.72
30614;BME280;17381;51.690;5.270;2023-02-13T12:40:04;103549.56;;;24.72;36.72
30614;BME280;17381;51.690;5.270;2023-02-13T12:42:50;103546.50;;;24.81;35.76
30614;BME280;17381;51.690;5.270;2023-02-13T12:45:35;103546.09;;;25.11;37.25
30614;BME280;17381;51.690;5.270;2023-02-13T12:48:22;103537.06;;;25.32;37.11
30614;BME280;17381;51.690;5.270;2023-02-13T12:54:16;103531.38;;;25.78;36.17
30614;BME280;17381;51.690;5.270;2023-02-13T12:57:31;103527.22;;;25.71;33.12
30614;BME280;17381;51.690;5.270;2023-02-13T13:03:51;103526.03;;;25.38;34.53
30614;BME280;17381;51.690;5.270;2023-02-13T13:06:59;103528.69;;;25.59;35.25
30614;BME280;17381;51.690;5.270;2023-02-13T13:09:48;103525.56;;;25.68;34.34
30614;BME280;17381;51.690;5.270;2023-02-13T13:12:29;103529.06;;;25.70;35.42
30614;BME280;17381;51.690;5.270;2023-02-13T13:18:38;103514.41;;;25.76;33.41
30614;BME280;17381;51.690;5.270;2023-02-13T13:21:34;103506.53;;;25.71;35.12
30614;BME280;17381;51.690;5.270;2023-02-13T13:27:00;103456.03;;;25.95;35.56
30614;BME280;17381;51.690;5.270;2023-02-13T13:29:44;103472.94;;;26.16;33.25
30614;BME280;17381;51.690;5.270;2023-02-13T13:32:23;103499.47;;;26.43;35.70
30614;BME280;17381;51.690;5.270;2023-02-13T13:35:11;103494.25;;;26.40;33.12
30614;BME280;17381;51.690;5.270;2023-02-13T13:40:54;103486.75;;;26.27;34.10
30614;BME280;17381;51.690;5.270;2023-02-13T13:43:27;103490.75;;;26.38;35.61
30614;BME280;17381;51.690;5.270;2023-02-13T13:53:08;103476.63;;;26.32;34.14
30614;BME280;17381;51.690;5.270;2023-02-13T13:56:09;103465.38;;;26.42;34.65
30614;BME280;17381;51.690;5.270;2023-02-13T13:59:07;103469.91;;;26.41;33.60
30614;BME280;17381;51.690;5.270;2023-02-13T14:09:58;103468.47;;;26.34;34.56
30614;BME280;17381;51.690;5.270;2023-02-13T14:13:44;103465.72;;;25.61;34.39
30614;BME280;17381;51.690;5.270;2023-02-13T14:17:46;103469.09;;;25.07;34.74
30614;BME280;17381;51.690;5.270;2023-02-13T14:21:04;103467.31;;;24.44;35.42
30614;BME280;17381;51.690;5.270;2023-02-13T14:24:17;103466.41;;;23.79;35.79
30614;BME280;17381;51.690;5.270;2023-02-13T14:26:56;103458.03;;;23.16;37.13
30614;BME280;17381;51.690;5.270;2023-02-13T14:33:52;103426.13;;;22.04;38.94
30614;BME280;17381;51.690;5.270;2023-02-13T14:37:12;103458.19;;;22.35;39.45
30614;BME280;17381;51.690;5.270;2023-02-13T14:40:43;103453.09;;;22.54;39.64
30614;BME280;17381;51.690;5.270;2023-02-13T14:43:52;103449.88;;;22.69;38.85
30614;BME280;17381;51.690;5.270;2023-02-13T14:46:52;103446.84;;;22.78;37.80
30614;BME280;17381;51.690;5.270;2023-02-13T14:50:28;103425.38;;;22.28;38.69
30614;BME280;17381;51.690;5.270;2023-02-13T14:53:08;103446.91;;;21.97;38.89
30614;BME280;17381;51.690;5.270;2023-02-13T14:56:20;103450.41;;;21.40;40.75
30614;BME280;17381;51.690;5.270;2023-02-13T15:06:40;103445.69;;;20.51;41.79
30614;BME280;17381;51.690;5.270;2023-02-13T15:12:43;103442.13;;;19.77;42.00
30614;BME280;17381;51.690;5.270;2023-02-13T15:15:53;103438.06;;;19.58;43.42
30614;BME280;17381;51.690;5.270;2023-02-13T15:18:53;103442.19;;;19.31;43.37
30614;BME280;17381;51.690;5.270;2023-02-13T15:21:44;103430.28;;;19.05;44.12
30614;BME280;17381;51.690;5.270;2023-02-13T15:24:45;103434.34;;;18.77;44.58
30614;BME280;17381;51.690;5.270;2023-02-13T15:27:45;103420.06;;;18.31;45.15
30614;BME280;17381;51.690;5.270;2023-02-13T15:30:32;103437.19;;;18.13;45.73
30614;BME280;17381;51.690;5.270;2023-02-13T15:37:05;103421.00;;;17.66;47.42
30614;BME280;17381;51.690;5.270;2023-02-13T15:51:48;103422.91;;;17.55;48.55
30614;BME280;17381;51.690;5.270;2023-02-13T15:55:29;103427.94;;;17.81;48.50
30614;BME280;17381;51.690;5.270;2023-02-13T16:06:58;103419.97;;;17.77;47.41
30614;BME280;17381;51.690;5.270;2023-02-13T16:10:39;103386.16;;;17.18;48.04
30614;BME280;17381;51.690;5.270;2023-02-13T16:13:32;103388.41;;;16.79;48.47
30614;BME280;17381;51.690;5.270;2023-02-13T16:17:11;103416.94;;;16.57;48.92
30614;BME280;17381;51.690;5.270;2023-02-13T16:20:14;103427.00;;;16.17;49.12
30614;BME280;17381;51.690;5.270;2023-02-13T16:23:06;103381.41;;;15.57;50.04
30614;BME280;17381;51.690;5.270;2023-02-13T16:26:18;103421.19;;;15.52;50.82
30614;BME280;17381;51.690;5.270;2023-02-13T16:29:18;103425.69;;;15.27;50.95
30614;BME280;17381;51.690;5.270;2023-02-13T16:32:25;103428.41;;;15.04;51.91
30614;BME280;17381;51.690;5.270;2023-02-13T16:35:37;103430.22;;;14.79;52.25
30614;BME280;17381;51.690;5.270;2023-02-13T16:41:39;103434.63;;;14.34;53.22
30614;BME280;17381;51.690;5.270;2023-02-13T16:52:24;103428.34;;;13.70;55.37
30614;BME280;17381;51.690;5.270;2023-02-13T16:58:43;103436.19;;;13.41;55.80
30614;BME280;17381;51.690;5.270;2023-02-13T17:01:39;103436.13;;;13.27;56.09
30614;BME280;17381;51.690;5.270;2023-02-13T17:04:30;103434.28;;;13.17;56.56
30614;BME280;17381;51.690;5.270;2023-02-13T17:07:04;103442.13;;;13.05;56.76
30614;BME280;17381;51.690;5.270;2023-02-13T17:09:41;103430.56;;;12.86;57.27
30614;BME280;17381;51.690;5.270;2023-02-13T17:12:15;103439.34;;;12.83;57.46
30614;BME280;17381;51.690;5.270;2023-02-13T17:14:46;103434.84;;;12.72;57.54
30614;BME280;17381;51.690;5.270;2023-02-13T17:17:17;103425.06;;;12.57;57.92
30614;BME280;17381;51.690;5.270;2023-02-13T17:19:49;103435.59;;;12.54;58.30
30614;BME280;17381;51.690;5.270;2023-02-13T17:22:20;103392.19;;;12.15;58.56
30614;BME280;17381;51.690;5.270;2023-02-13T17:24:51;103456.56;;;12.38;58.74
30614;BME280;17381;51.690;5.270;2023-02-13T17:27:29;103398.19;;;11.95;59.21
30614;BME280;17381;51.690;5.270;2023-02-13T17:29:58;103445.84;;;12.17;59.67
30614;BME280;17381;51.690;5.270;2023-02-13T17:32:30;103454.63;;;12.16;59.66
30614;BME280;17381;51.690;5.270;2023-02-13T17:37:42;103461.50;;;12.02;60.18
30614;BME280;17381;51.690;5.270;2023-02-13T17:40:22;103457.94;;;11.96;60.41
30614;BME280;17381;51.690;5.270;2023-02-13T17:42:56;103431.22;;;11.69;60.64
30614;BME280;17381;51.690;5.270;2023-02-13T17:45:30;103458.59;;;11.80;61.06
30614;BME280;17381;51.690;5.270;2023-02-13T17:48:06;103446.09;;;11.64;61.20
30614;BME280;17381;51.690;5.270;2023-02-13T17:50:40;103466.28;;;11.63;61.39
30614;BME280;17381;51.690;5.270;2023-02-13T17:53:23;103461.88;;;11.59;61.71
30614;BME280;17381;51.690;5.270;2023-02-13T17:56:23;103464.34;;;11.48;61.75
30614;BME280;17381;51.690;5.270;2023-02-13T17:58:52;103459.81;;;11.38;62.06
30614;BME280;17381;51.690;5.270;2023-02-13T18:01:27;103455.34;;;11.31;62.46
30614;BME280;17381;51.690;5.270;2023-02-13T18:04:02;103463.19;;;11.26;62.80
30614;BME280;17381;51.690;5.270;2023-02-13T18:06:40;103462.28;;;11.24;62.89
30614;BME280;17381;51.690;5.270;2023-02-13T18:09:09;103443.56;;;11.04;63.13
30614;BME280;17381;51.690;5.270;2023-02-13T18:11:39;103455.03;;;11.08;63.13
30614;BME280;17381;51.690;5.270;2023-02-13T18:14:19;103468.91;;;10.98;63.13
30614;BME280;17381;51.690;5.270;2023-02-13T18:17:02;103477.66;;;10.97;63.72
30614;BME280;17381;51.690;5.270;2023-02-13T18:19:54;103473.19;;;10.89;63.78
30614;BME280;17381;51.690;5.270;2023-02-13T18:22:42;103455.34;;;10.72;63.86
30614;BME280;17381;51.690;5.270;2023-02-13T18:25:47;103464.03;;;10.67;63.96
30614;BME280;17381;51.690;5.270;2023-02-13T18:28:40;103470.94;;;10.59;64.20
30614;BME280;17381;51.690;5.270;2023-02-13T18:31:41;103439.81;;;10.34;64.01
30614;BME280;17381;51.690;5.270;2023-02-13T18:34:36;103464.41;;;10.37;64.39
30614;BME280;17381;51.690;5.270;2023-02-13T18:37:55;103469.53;;;10.30;65.04
30614;BME280;17381;51.690;5.270;2023-02-13T18:40:48;103449.00;;;10.10;64.97
30614;BME280;17381;51.690;5.270;2023-02-13T18:43:20;103444.38;;;9.98;65.34
30614;BME280;17381;51.690;5.270;2023-02-13T18:45:49;103462.84;;;10.01;65.40
30614;BME280;17381;51.690;5.270;2023-02-13T19:03:28;103464.09;;;9.34;66.68
30614;BME280;17381;51.690;5.270;2023-02-13T19:06:20;103449.03;;;9.25;66.76
30614;BME280;17381;51.690;5.270;2023-02-13T19:09:48;103463.91;;;9.25;67.21
30614;BME280;17381;51.690;5.270;2023-02-13T19:12:36;103458.41;;;9.14;67.29
30614;BME280;17381;51.690;5.270;2023-02-13T19:15:05;103460.88;;;9.06;67.71
30614;BME280;17381;51.690;5.270;2023-02-13T19:17:37;103471.34;;;9.06;67.68
30614;BME280;17381;51.690;5.270;2023-02-13T19:20:13;103450.03;;;8.91;68.06
30614;BME280;17381;51.690;5.270;2023-02-13T19:22:48;103403.72;;;8.57;67.71
30614;BME280;17381;51.690;5.270;2023-02-13T19:25:22;103453.34;;;8.85;68.61
30614;BME280;17381;51.690;5.270;2023-02-13T19:27:54;103444.28;;;8.71;68.49
30614;BME280;17381;51.690;5.270;2023-02-13T19:30:34;103460.03;;;8.71;67.91
30614;BME280;17381;51.690;5.270;2023-02-13T19:33:09;103460.72;;;8.64;68.43
30614;BME280;17381;51.690;5.270;2023-02-13T19:35:40;103462.34;;;8.59;68.84
30614;BME280;17381;51.690;5.270;2023-02-13T19:38:09;103455.97;;;8.49;68.82
30614;BME280;17381;51.690;5.270;2023-02-13T19:40:38;103462.94;;;8.47;68.85
30614;BME280;17381;51.690;5.270;2023-02-13T19:43:18;103447.81;;;8.38;69.34
30614;BME280;17381;51.690;5.270;2023-02-13T19:46:16;103460.91;;;8.38;69.23
30614;BME280;17381;51.690;5.270;2023-02-13T19:49:08;103463.19;;;8.24;68.91
30614;BME280;17381;51.690;5.270;2023-02-13T19:51:55;103455.88;;;8.13;69.19
30614;BME280;17381;51.690;5.270;2023-02-13T19:54:27;103459.34;;;8.12;69.84
30614;BME280;17381;51.690;5.270;2023-02-13T19:57:01;103453.00;;;8.03;69.60
30614;BME280;17381;51.690;5.270;2023-02-13T19:59:31;103461.81;;;8.05;69.58
30614;BME280;17381;51.690;5.270;2023-02-13T20:02:12;103455.50;;;7.99;70.08
30614;BME280;17381;51.690;5.270;2023-02-13T20:07:57;103463.88;;;7.87;70.05
30614;BME280;17381;51.690;5.270;2023-02-13T20:10:26;103463.72;;;7.81;70.29
30614;BME280;17381;51.690;5.270;2023-02-13T20:12:57;103408.59;;;7.45;70.20
30614;BME280;17381;51.690;5.270;2023-02-13T20:15:29;103470.50;;;7.74;70.84
30614;BME280;17381;51.690;5.270;2023-02-13T20:18:06;103459.06;;;7.71;70.58
30614;BME280;17381;51.690;5.270;2023-02-13T20:21:22;103467.59;;;7.63;70.69
30614;BME280;17381;51.690;5.270;2023-02-13T20:23:54;103461.25;;;7.55;70.79
30614;BME280;17381;51.690;5.270;2023-02-13T20:26:23;103473.41;;;7.53;71.16
30614;BME280;17381;51.690;5.270;2023-02-13T20:28:55;103419.25;;;7.20;71.26
30614;BME280;17381;51.690;5.270;2023-02-13T20:31:34;103467.91;;;7.44;71.22
30614;BME280;17381;51.690;5.270;2023-02-13T20:34:05;103466.09;;;7.41;71.39
30614;BME280;17381;51.690;5.270;2023-02-13T20:36:34;103451.78;;;7.30;71.21
30614;BME280;17381;51.690;5.270;2023-02-13T20:39:17;103443.69;;;7.22;71.53
30614;BME280;17381;51.690;5.270;2023-02-13T20:41:57;103457.81;;;7.28;71.26
30614;BME280;17381;51.690;5.270;2023-02-13T20:45:04;103452.25;;;7.17;71.59
30614;BME280;17381;51.690;5.270;2023-02-13T20:47:33;103445.03;;;7.08;71.66
30614;BME280;17381;51.690;5.270;2023-02-13T20:50:01;103454.63;;;7.09;71.62
30614;BME280;17381;51.690;5.270;2023-02-13T20:52:37;103441.22;;;6.98;71.92
30614;BME280;17381;51.690;5.270;2023-02-13T20:55:06;103400.31;;;6.72;71.96
30614;BME280;17381;51.690;5.270;2023-02-13T20:57:38;103458.69;;;6.99;72.05
30614;BME280;17381;51.690;5.270;2023-02-13T21:00:11;103461.16;;;6.95;71.94
30614;BME280;17381;51.690;5.270;2023-02-13T21:02:44;103463.56;;;6.89;71.91
30614;BME280;17381;51.690;5.270;2023-02-13T21:05:28;103454.59;;;6.81;72.28
30614;BME280;17381;51.690;5.270;2023-02-13T21:07:55;103457.03;;;6.74;72.36
30614;BME280;17381;51.690;5.270;2023-02-13T21:10:26;103460.63;;;6.78;72.57
30614;BME280;17381;51.690;5.270;2023-02-13T21:13:03;103465.59;;;6.70;72.42
30614;BME280;17381;51.690;5.270;2023-02-13T21:15:39;103409.63;;;6.37;72.25
30614;BME280;17381;51.690;5.270;2023-02-13T21:18:22;103472.19;;;6.59;73.00
30614;BME280;17381;51.690;5.270;2023-02-13T21:21:13;103479.78;;;6.51;72.88
30614;BME280;17381;51.690;5.270;2023-02-13T21:24:00;103488.13;;;6.41;73.19
30614;BME280;17381;51.690;5.270;2023-02-13T21:26:36;103457.72;;;6.18;73.05
30614;BME280;17381;51.690;5.270;2023-02-13T21:29:05;103477.09;;;6.24;73.35
30614;BME280;17381;51.690;5.270;2023-02-13T21:31:51;103487.59;;;6.26;73.35
30614;BME280;17381;51.690;5.270;2023-02-13T21:34:37;103482.28;;;6.23;73.50
30614;BME280;17381;51.690;5.270;2023-02-13T21:37:21;103485.78;;;6.23;73.58
30614;BME280;17381;51.690;5.270;2023-02-13T21:39:59;103493.53;;;6.22;73.70
30614;BME280;17381;51.690;5.270;2023-02-13T21:42:53;103490.91;;;6.20;73.73
30614;BME280;17381;51.690;5.270;2023-02-13T21:45:40;103395.66;;;5.61;73.44
30614;BME280;17381;51.690;5.270;2023-02-13T21:48:12;103461.53;;;6.02;73.95
30614;BME280;17381;51.690;5.270;2023-02-13T21:50:55;103487.16;;;6.14;73.83
30614;BME280;17381;51.690;5.270;2023-02-13T21:53:30;103453.25;;;5.91;74.22
30614;BME280;17381;51.690;5.270;2023-02-13T21:56:05;103481.75;;;6.07;74.08
30614;BME280;17381;51.690;5.270;2023-02-13T21:58:41;103493.84;;;6.05;74.09
30614;BME280;17381;51.690;5.270;2023-02-13T22:01:22;103486.72;;;6.01;74.20
30614;BME280;17381;51.690;5.270;2023-02-13T22:03:58;103480.50;;;5.98;74.46
30614;BME280;17381;51.690;5.270;2023-02-13T22:06:29;103463.56;;;5.86;74.53
30614;BME280;17381;51.690;5.270;2023-02-13T22:09:13;103475.19;;;5.95;74.53
30614;BME280;17381;51.690;5.270;2023-02-13T22:11:57;103475.84;;;5.90;74.60
30614;BME280;17381;51.690;5.270;2023-02-13T22:14:23;103477.47;;;5.87;74.76
30614;BME280;17381;51.690;5.270;2023-02-13T22:17:23;103468.69;;;5.85;74.61
30614;BME280;17381;51.690;5.270;2023-02-13T22:19:57;103463.31;;;5.80;74.59
30614;BME280;17381;51.690;5.270;2023-02-13T22:22:26;103453.66;;;5.78;74.88
30614;BME280;17381;51.690;5.270;2023-02-13T22:25:06;103449.00;;;5.69;75.02
30614;BME280;17381;51.690;5.270;2023-02-13T22:27:40;103463.03;;;5.73;75.10
30614;BME280;17381;51.690;5.270;2023-02-13T22:30:34;103454.97;;;5.66;75.03
30614;BME280;17381;51.690;5.270;2023-02-13T22:33:15;103459.16;;;5.61;74.84
30614;BME280;17381;51.690;5.270;2023-02-13T22:35:56;103461.56;;;5.57;75.00
30614;BME280;17381;51.690;5.270;2023-02-13T22:38:36;103458.47;;;5.43;74.70
30614;BME280;17381;51.690;5.270;2023-02-13T22:41:15;103473.06;;;5.39;75.04
30614;BME280;17381;51.690;5.270;2023-02-13T22:43:48;103462.25;;;5.29;74.97
30614;BME280;17381;51.690;5.270;2023-02-13T22:50:26;103480.81;;;5.14;75.00
30614;BME280;17381;51.690;5.270;2023-02-13T23:01:32;103457.78;;;4.81;75.83
30614;BME280;17381;51.690;5.270;2023-02-13T23:07:17;103472.56;;;4.82;76.40
30614;BME280;17381;51.690;5.270;2023-02-13T23:09:52;103470.81;;;4.81;76.27
30614;BME280;17381;51.690;5.270;2023-02-13T23:12:18;103458.47;;;4.77;76.46
30614;BME280;17381;51.690;5.270;2023-02-13T23:15:19;103467.25;;;4.79;76.26
30614;BME280;17381;51.690;5.270;2023-02-13T23:17:48;103469.66;;;4.74;76.62
30614;BME280;17381;51.690;5.270;2023-02-13T23:20:43;103467.00;;;4.73;76.72
30614;BME280;17381;51.690;5.270;2023-02-13T23:23:16;103465.97;;;4.69;76.80
30614;BME280;17381;51.690;5.270;2023-02-13T23:25:44;103465.91;;;4.68;76.78
30614;BME280;17381;51.690;5.270;2023-02-13T23:28:19;103450.75;;;4.57;76.66
30614;BME280;17381;51.690;5.270;2023-02-13T23:30:48;103441.97;;;4.55;76.99
30614;BME280;17381;51.690;5.270;2023-02-13T23:33:26;103456.19;;;4.64;76.65
30614;BME280;17381;51.690;5.270;2023-02-13T23:35:56;103460.31;;;4.58;76.88
30614;BME280;17381;51.690;5.270;2023-02-13T23:38:22;103438.16;;;4.47;76.63
30614;BME280;17381;51.690;5.270;2023-02-13T23:40:48;103456.63;;;4.53;76.67
30614;BME280;17381;51.690;5.270;2023-02-13T23:43:20;103453.22;;;4.54;76.76
30614;BME280;17381;51.690;5.270;2023-02-13T23:45:48;103453.91;;;4.50;76.86
30614;BME280;17381;51.690;5.270;2023-02-13T23:48:23;103451.94;;;4.45;76.63
30614;BME280;17381;51.690;5.270;2023-02-13T23:50:55;103459.75;;;4.45;76.82
30614;BME280;17381;51.690;5.270;2023-02-13T23:53:21;103394.81;;;4.07;77.13
30614;BME280;17381;51.690;5.270;2023-02-13T23:55:53;103449.78;;;4.34;77.14
30614;BME280;17381;51.690;5.270;2023-02-13T23:58:19;103462.78;;;4.34;76.55
